Aviation Digital Data Service (ADDS)

Output produced by METARs form (1812 UTC 14 August 2018)
found at http://www.aviationweather.gov/adds/metars/
 
ZMUB 141800Z 15006MPS 9999 SCT033 SCT100 21/11 Q1017 NOSIG RMK QFE655.1 50 NT
TAF ZMUB 141640Z 1418/1524 15008MPS 9999 FEW030CB BKN033 TN17/1421Z TX23/1507Z 
     TEMPO 1418/1505 VRB08MPS TS SHRA SCT030CB BKN033 
     BECMG 1421/1424 VRB02MPS 
     TEMPO 1505/1518 VRB08G13MPS TS SHRA SCT027CB BKN030 
     BECMG 1518/1520 RA FEW020 FEW027CB BKN030